Time;durP1;ratioP1;P1;durP2;ratioP2;P2;SDS_P1;SDS_P2;PMS_P1;PMS_P2;Temp;Humidity;BMP_temperature;BMP_pressure;BME280_temperature;BME280_humidity;BME280_pressure;Samples;Min_cycle;Max_cycle;Signal;HPM_P1;HPM_P2
2022/05/03 08:28:33;;;;;;;7.22;2.20;;;;;;;37.09;14.92;100070.81;2466952;76;25692;-70
2022/05/03 08:31:53;;;;;;;4.37;1.72;;;;;;;36.73;15.48;100071.45;2441533;79;25664;-70
2022/05/03 08:35:21;;;;;;;11.80;1.77;;;;;;;36.62;15.02;100067.85;2422648;81;25711;-70
2022/05/03 08:42:30;;;;;;;3.10;1.50;;;;;;;36.52;14.64;100073.75;2401768;81;25700;-71
2022/05/03 08:46:03;;;;;;;1.35;1.17;;;;;;;36.53;14.75;100071.89;2427481;80;25647;-70
2022/05/03 08:49:45;;;;;;;3.90;1.40;;;;;;;36.46;14.43;100078.34;2425630;80;25667;-72
2022/05/03 08:53:06;;;;;;;4.62;1.35;;;;;;;36.08;14.59;100070.87;2439984;80;25715;-69
2022/05/03 08:56:30;;;;;;;3.00;1.57;;;;;;;35.96;14.56;100064.66;2421587;80;25738;-71
2022/05/03 08:59:54;;;;;;;3.22;1.65;;;;;;;36.37;14.20;100063.72;2432394;80;25644;-72
2022/05/03 09:03:15;;;;;;;3.25;1.85;;;;;;;36.17;14.03;100072.78;2420823;80;25665;-73
2022/05/03 09:06:51;;;;;;;2.45;1.25;;;;;;;36.11;14.12;100069.25;2430384;80;25694;-78
2022/05/03 09:10:32;;;;;;;4.30;1.70;;;;;;;36.30;13.92;100067.13;2420205;81;25734;-74
2022/05/03 09:13:53;;;;;;;3.58;1.30;;;;;;;36.55;13.87;100063.09;2437539;80;26220;-73
2022/05/03 09:17:14;;;;;;;3.60;1.72;;;;;;;36.39;13.84;100052.74;2399788;80;25767;-74
2022/05/03 09:24:27;;;;;;;2.02;1.60;;;;;;;35.34;14.36;100046.55;2358862;81;25674;-77
2022/05/03 09:27:50;;;;;;;2.45;1.52;;;;;;;34.58;14.58;100044.30;2383157;80;25633;-73
2022/05/03 09:31:28;;;;;;;6.42;1.27;;;;;;;34.89;14.71;100045.33;2342914;81;25672;-72
2022/05/03 09:34:51;;;;;;;8.18;1.40;;;;;;;34.81;14.36;100042.41;2409257;80;25640;-76
2022/05/03 09:38:11;;;;;;;1.92;1.35;;;;;;;33.98;14.38;100032.83;2385261;82;25777;-73
2022/05/03 09:41:32;;;;;;;2.27;2.08;;;;;;;33.59;14.57;100039.07;2361996;81;25767;-75
2022/05/03 09:45:03;;;;;;;1.45;1.32;;;;;;;33.38;15.06;100032.11;2396860;80;25610;-72
2022/05/03 09:48:29;;;;;;;3.12;1.52;;;;;;;33.70;15.22;100032.32;2384959;81;25616;-75
2022/05/03 09:51:53;;;;;;;3.83;1.42;;;;;;;34.15;15.20;100028.31;2383541;82;25113;-71
2022/05/03 09:55:18;;;;;;;3.55;1.07;;;;;;;34.46;14.89;100031.23;2370171;81;25687;-75
2022/05/03 09:58:39;;;;;;;1.82;1.30;;;;;;;34.64;14.89;100025.70;2321625;83;26113;-80
2022/05/03 10:02:02;;;;;;;5.30;1.57;;;;;;;34.77;14.72;100027.77;2303969;82;25460;-71
2022/05/03 10:05:29;;;;;;;6.47;1.40;;;;;;;34.47;14.54;100025.71;2395882;81;25594;-74
2022/05/03 10:08:52;;;;;;;5.28;1.55;;;;;;;33.52;14.73;100029.72;2389108;81;25614;-71
2022/05/03 10:12:15;;;;;;;4.17;1.22;;;;;;;33.09;15.14;100022.17;2389814;81;25760;-75
2022/05/03 10:23:28;;;;;;;3.27;1.35;;;;;;;33.58;14.95;100028.75;2376801;82;25753;-71
2022/05/03 10:27:14;;;;;;;3.55;1.72;;;;;;;33.21;15.16;100030.70;2393364;80;25773;-78
2022/05/03 10:30:41;;;;;;;1.80;1.07;;;;;;;32.65;15.26;100023.64;2390653;80;25692;-73
2022/05/03 10:34:04;;;;;;;5.62;1.37;;;;;;;31.92;15.76;100027.97;2384540;81;26044;-83
2022/05/03 10:37:33;;;;;;;2.47;1.52;;;;;;;32.06;16.19;100031.02;2377325;82;25161;-72
2022/05/03 10:40:56;;;;;;;2.85;1.50;;;;;;;32.04;16.20;100025.39;2370062;81;25765;-82
2022/05/03 10:44:42;;;;;;;6.05;1.35;;;;;;;31.28;16.37;100015.73;2383809;80;25616;-71
2022/05/03 10:48:03;;;;;;;4.60;1.55;;;;;;;30.76;16.84;100008.49;2388569;79;25612;-71
2022/05/03 10:51:24;;;;;;;3.33;1.30;;;;;;;30.72;16.89;100007.43;2391557;80;25792;-80
2022/05/03 10:55:09;;;;;;;2.83;1.12;;;;;;;30.54;17.09;100018.44;2384938;80;25656;-72
2022/05/03 10:58:40;;;;;;;4.75;1.20;;;;;;;30.38;17.40;100015.50;2372393;81;25680;-72
2022/05/03 11:02:07;;;;;;;2.85;1.07;;;;;;;30.74;17.50;100017.10;2389815;80;25703;-80
2022/05/03 11:05:28;;;;;;;2.27;1.90;;;;;;;30.49;17.33;100017.86;2353649;82;26363;-72
2022/05/03 11:12:54;;;;;;;1.10;1.00;;;;;;;29.81;17.26;100012.34;2402893;80;25717;-79
2022/05/03 11:16:29;;;;;;;1.50;1.07;;;;;;;29.52;17.73;100009.57;2413318;80;25645;-71
2022/05/03 11:20:04;;;;;;;2.20;1.82;;;;;;;29.68;17.87;100014.05;2407460;80;26416;-75
2022/05/03 11:23:25;;;;;;;7.17;1.95;;;;;;;29.85;17.77;100012.04;2401694;81;25864;-71
2022/05/03 11:26:56;;;;;;;4.97;1.55;;;;;;;29.72;17.72;100008.38;2405548;80;25871;-74
2022/05/03 11:30:27;;;;;;;2.42;1.25;;;;;;;29.46;17.82;100005.05;2427078;79;25902;-71
2022/05/03 11:34:00;;;;;;;6.25;1.77;;;;;;;29.49;17.99;100001.70;2410952;80;25810;-79
2022/05/03 11:37:25;;;;;;;7.00;2.25;;;;;;;29.25;18.19;100011.25;2381506;80;25645;-76
2022/05/03 11:40:46;;;;;;;1.75;1.57;;;;;;;29.25;18.46;100011.25;2378914;81;25919;-75
2022/05/03 11:44:42;;;;;;;2.55;1.72;;;;;;;28.97;18.53;99999.44;2373795;81;25788;-76
2022/05/03 11:48:31;;;;;;;;;;;;;;;;;;;;;
2022/05/03 11:59:27;;;;;;;3.83;1.70;;;;;;;28.56;18.41;99971.86;2101899;92;25775;-80
2022/05/03 12:02:50;;;;;;;;;;;;;;;28.67;18.93;99988.19;2081783;91;25956;-77
2022/05/03 12:06:15;;;;;;;1.92;1.55;;;;;;;28.51;19.01;99986.47;2092700;93;26048;-79
2022/05/03 12:09:39;;;;;;;1.52;1.42;;;;;;;28.13;19.78;100000.19;2083864;93;25844;-76
2022/05/03 12:13:16;;;;;;;3.33;1.87;;;;;;;27.67;20.02;99997.27;2097345;93;25742;-76
2022/05/03 12:17:23;;;;;;;2.00;1.20;;;;;;;27.46;20.06;99990.77;2104452;93;25852;-77
2022/05/03 12:21:32;;;;;;;6.30;1.42;;;;;;;27.06;20.36;99990.12;2099669;90;26080;-75
2022/05/03 12:24:52;;;;;;;2.52;1.30;;;;;;;26.89;20.60;99982.56;2121223;91;25723;-73
2022/05/03 12:28:14;;;;;;;2.15;1.30;;;;;;;26.62;20.65;99980.31;2108449;92;25941;-71
2022/05/03 12:31:46;;;;;;;2.70;1.12;;;;;;;26.78;20.72;99975.94;2143047;91;25899;-72
2022/05/03 12:35:08;;;;;;;2.50;1.30;;;;;;;26.95;20.55;99979.10;2150306;88;25862;-73
2022/05/03 12:38:46;;;;;;;2.58;0.90;;;;;;;27.03;20.47;99974.25;2218818;86;25704;-71
2022/05/03 12:42:15;;;;;;;4.03;0.90;;;;;;;26.92;20.46;99971.23;2189574;88;25737;-73
2022/05/03 12:45:35;;;;;;;;;;;;;;;26.74;20.49;99965.00;2156804;90;25814;-72
2022/05/03 12:48:59;;;;;;;3.60;1.07;;;;;;;26.81;20.44;99958.88;2160669;89;25911;-81
2022/05/03 12:52:26;;;;;;;2.47;1.10;;;;;;;26.97;20.40;99965.66;2313953;83;25711;-71
2022/05/03 12:55:56;;;;;;;8.33;2.87;;;;;;;26.82;20.34;99963.27;2307572;83;25903;-75
2022/05/03 12:59:18;;;;;;;5.22;2.12;;;;;;;26.77;20.85;99953.30;2324482;83;25775;-81
2022/05/03 13:02:39;;;;;;;7.33;1.98;;;;;;;26.56;21.20;99959.22;2323138;83;25738;-81
2022/05/03 13:05:59;;;;;;;3.20;1.30;;;;;;;26.52;21.34;99952.30;2325167;83;25915;-75
2022/05/03 13:09:21;;;;;;;1.67;1.00;;;;;;;26.30;21.58;99951.12;2327179;82;26029;-70
2022/05/03 13:12:42;;;;;;;8.23;0.90;;;;;;;26.29;21.24;99951.59;2329075;82;26451;-70
2022/05/03 13:16:04;;;;;;;2.70;0.82;;;;;;;26.13;20.99;99955.45;2369801;80;26403;-71
2022/05/03 13:19:27;;;;;;;1.32;0.80;;;;;;;26.04;20.95;99953.69;2433588;80;25648;-71
2022/05/03 13:22:49;;;;;;;2.22;0.90;;;;;;;26.19;20.90;99948.97;2421179;80;25620;-69
2022/05/03 13:27:00;;;;;;;1.32;0.70;;;;;;;26.26;20.60;99947.73;2363563;81;25860;31
2022/05/03 13:30:22;;;;;;;1.85;0.60;;;;;;;26.51;20.49;99944.75;2393472;82;25805;-74
2022/05/03 13:33:43;;;;;;;2.37;0.82;;;;;;;26.47;20.51;99944.52;2344465;83;25698;-71
2022/05/03 13:40:45;;;;;;;3.65;0.70;;;;;;;26.33;20.53;99946.49;2357437;83;25573;-80
2022/05/03 13:44:09;;;;;;;3.20;0.70;;;;;;;26.69;20.25;99940.77;2356897;83;25659;-79
2022/05/03 13:47:33;;;;;;;1.25;0.90;;;;;;;26.95;19.99;99938.11;2352726;83;25591;-77
2022/05/03 13:51:01;;;;;;;3.90;0.70;;;;;;;27.08;19.84;99942.75;2297000;83;25769;-71
2022/05/03 13:54:27;;;;;;;4.72;0.70;;;;;;;26.94;19.67;99937.73;2346167;83;25807;-71
2022/05/03 13:57:50;;;;;;;1.67;0.90;;;;;;;27.21;19.68;99936.33;2352494;83;25678;-71
2022/05/03 14:01:14;;;;;;;2.35;0.68;;;;;;;27.33;19.33;99948.67;2316605;83;25641;-72
2022/05/03 14:04:36;;;;;;;3.65;0.70;;;;;;;27.44;19.25;99946.28;2295928;83;25714;-72
2022/05/03 14:07:56;;;;;;;4.72;0.60;;;;;;;27.28;19.03;99952.94;2315597;82;25709;-73
2022/05/03 14:11:18;;;;;;;3.60;0.70;;;;;;;27.15;18.91;99946.02;2354816;83;25633;-73
2022/05/03 14:14:46;;;;;;;2.50;0.70;;;;;;;26.90;18.92;99938.36;2350597;83;25624;-73
2022/05/03 14:18:57;;;;;;;;;;;;;;;;;;;;;
2022/05/03 14:22:31;;;;;;;;;;;;;;;;;;;;;
2022/05/03 14:30:18;;;;;;;3.58;0.53;;;;;;;25.97;19.49;99929.06;2112836;90;25868;-77
2022/05/03 14:38:22;;;;;;;1.45;1.05;;;;;;;25.51;19.94;99933.81;2137002;90;25729;-77
2022/05/03 14:42:33;;;;;;;0.82;0.70;;;;;;;25.37;19.84;99932.25;2129077;87;25808;-76
2022/05/03 14:46:07;;;;;;;1.45;0.55;;;;;;;25.27;19.92;99930.92;2001164;96;25949;-77
2022/05/03 14:53:50;;;;;;;0.65;0.40;;;;;;;24.88;19.95;99928.56;1956162;99;25963;-77
2022/05/03 15:05:21;;;;;;;6.10;1.42;;;;;;;24.22;20.00;99928.56;1985031;95;25839;-77
2022/05/03 15:08:46;;;;;;;3.65;0.68;;;;;;;24.01;20.43;99924.96;2033664;95;26646;-78
2022/05/03 15:12:13;;;;;;;2.47;0.40;;;;;;;23.77;20.78;99928.11;2019332;92;26342;-79
2022/05/03 15:27:18;;;;;;;0.90;0.50;;;;;;;23.48;21.01;99921.17;1900664;102;25823;-77
2022/05/03 15:30:50;;;;;;;3.67;0.37;;;;;;;23.28;20.96;99926.34;1854271;103;26107;-77
2022/05/03 15:38:16;;;;;;;3.42;0.50;;;;;;;22.89;21.35;99919.30;1831246;106;25788;-76
2022/05/03 15:41:38;;;;;;;5.30;0.50;;;;;;;22.79;21.53;99921.39;1830012;105;25890;-76
2022/05/03 15:45:00;;;;;;;1.22;0.50;;;;;;;22.71;21.70;99924.29;1825283;106;25810;-77
2022/05/03 15:48:20;;;;;;;1.77;0.50;;;;;;;22.61;21.79;99917.55;1830671;102;26598;-77
2022/05/03 15:51:55;;;;;;;4.97;0.50;;;;;;;22.59;21.96;99912.77;1929776;100;25891;-77
2022/05/03 15:55:25;;;;;;;0.62;0.40;;;;;;;22.54;22.06;99908.91;1963469;97;26551;-77
2022/05/03 15:58:46;;;;;;;4.12;0.45;;;;;;;22.52;22.16;99920.06;1955360;99;25640;-78
2022/05/03 16:02:08;;;;;;;5.10;0.57;;;;;;;22.53;22.24;99909.84;1970712;99;25539;-76
2022/05/03 16:05:36;;;;;;;4.53;0.55;;;;;;;22.39;22.35;99909.43;2013451;87;26004;-78
2022/05/03 16:08:59;;;;;;;2.85;0.57;;;;;;;22.21;22.45;99912.66;2192900;88;25721;-77
2022/05/03 16:12:20;;;;;;;2.27;0.55;;;;;;;22.05;22.81;99909.14;2233437;86;25759;-78
2022/05/03 16:15:59;;;;;;;3.60;0.75;;;;;;;21.93;22.92;99909.51;2208618;88;25408;-79
2022/05/03 16:19:25;;;;;;;2.85;1.05;;;;;;;21.79;23.10;99911.25;2177580;90;25680;-75
2022/05/03 16:22:51;;;;;;;6.58;1.20;;;;;;;21.69;23.21;99907.14;2157605;88;25748;-76
2022/05/03 16:26:28;;;;;;;2.85;1.25;;;;;;;21.61;23.46;99902.06;2170289;86;33105;-75
2022/05/03 16:34:05;;;;;;;1.80;0.65;;;;;;;21.46;23.81;99898.52;2562548;77;27467;-75
2022/05/03 16:45:10;;;;;;;1.32;0.60;;;;;;;21.09;24.66;99911.44;2520358;78;25554;-77
2022/05/03 16:48:29;;;;;;;1.75;0.72;;;;;;;21.15;24.73;99913.06;2518880;78;25585;-72
2022/05/03 16:51:50;;;;;;;5.37;1.00;;;;;;;21.11;24.83;99914.06;2521063;78;25668;-70
2022/05/03 16:55:12;;;;;;;3.65;0.90;;;;;;;20.96;25.16;99919.33;2520847;78;25574;-69
2022/05/03 16:58:33;;;;;;;2.22;0.80;;;;;;;20.81;25.73;99918.39;2520576;78;25693;-74
2022/05/03 17:01:58;;;;;;;10.38;0.72;;;;;;;20.84;26.24;99931.56;2520380;78;25574;-71
2022/05/03 17:05:20;;;;;;;2.52;0.70;;;;;;;20.71;26.89;99927.89;2519891;78;25588;-73
2022/05/03 17:08:41;;;;;;;0.90;0.60;;;;;;;20.53;27.42;99934.98;2516635;78;25673;-73
2022/05/03 17:12:03;;;;;;;6.10;1.02;;;;;;;20.36;27.83;99938.00;2482775;78;26386;-74
2022/05/03 17:15:24;;;;;;;1.70;0.78;;;;;;;20.24;28.16;99935.17;2516159;78;25690;-72
2022/05/03 17:18:47;;;;;;;2.92;1.07;;;;;;;20.13;28.51;99937.66;2519763;78;25189;-72
2022/05/03 17:22:26;;;;;;;4.87;0.80;;;;;;;19.99;28.80;99942.80;2519870;78;25154;-71
2022/05/03 17:25:49;;;;;;;5.53;1.37;;;;;;;19.88;29.06;99948.79;2519044;78;25642;-77
2022/05/03 17:29:10;;;;;;;4.53;0.93;;;;;;;19.80;29.24;99949.38;2516702;78;25625;-77
2022/05/03 17:32:42;;;;;;;1.47;0.90;;;;;;;19.68;29.36;99950.98;2474152;79;25766;-72
2022/05/03 17:36:04;;;;;;;3.35;0.98;;;;;;;19.59;29.64;99951.54;2445662;80;26385;-72
2022/05/03 17:39:28;;;;;;;5.85;0.80;;;;;;;19.47;30.01;99953.55;2445979;80;25711;-80
2022/05/03 17:42:49;;;;;;;2.27;0.78;;;;;;;19.39;30.23;99952.39;2474373;80;25624;-78
2022/05/03 17:46:18;;;;;;;2.00;0.90;;;;;;;19.31;30.32;99964.44;2444088;80;25830;-71
2022/05/03 17:49:48;;;;;;;;;;;;;;;19.22;30.46;99968.56;2472911;79;25654;-75
2022/05/03 17:56:54;;;;;;;5.00;0.80;;;;;;;19.03;30.73;99976.39;2474185;80;25758;-72
2022/05/03 18:00:30;;;;;;;6.97;1.07;;;;;;;19.03;31.26;99971.11;2471107;79;25649;-83
2022/05/03 18:04:02;;;;;;;5.10;1.20;;;;;;;19.32;31.47;99972.77;2469008;79;25684;-83
2022/05/03 18:07:35;;;;;;;3.77;1.07;;;;;;;19.39;31.80;99983.23;2469398;80;25765;-82
2022/05/03 18:11:24;;;;;;;3.72;1.17;;;;;;;19.29;31.57;99988.69;2273058;84;25697;-84
2022/05/03 18:14:57;;;;;;;;;;;;;;;;;;;;;
2022/05/03 18:18:37;;;;;;;1.57;1.10;;;;;;;19.19;31.47;99992.40;2258250;86;25878;-85
2022/05/03 18:22:07;;;;;;;2.98;0.90;;;;;;;19.16;32.16;99993.77;2185053;90;25791;-80
2022/05/03 18:26:03;;;;;;;3.70;1.20;;;;;;;19.55;33.57;100001.88;2187522;89;25870;-82
2022/05/03 18:33:30;;;;;;;3.83;1.10;;;;;;;19.86;33.93;100014.07;2073069;95;25981;-89
2022/05/03 18:37:39;;;;;;;;;;;;;;;;;;;;;
2022/05/03 18:41:05;;;;;;;3.40;0.70;;;;;;;19.98;33.97;100025.73;1989674;98;25805;-86
2022/05/03 18:44:37;;;;;;;2.70;0.95;;;;;;;20.05;34.33;100022.52;1987668;98;25916;-88
2022/05/03 18:48:00;;;;;;;4.17;1.70;;;;;;;20.13;34.47;100026.31;1997270;98;25947;-81
2022/05/03 18:51:50;;;;;;;1.50;0.82;;;;;;;20.18;34.60;100020.45;2000751;97;25678;-80
2022/05/03 18:55:45;;;;;;;3.77;1.20;;;;;;;20.21;34.65;100025.23;1987913;98;25889;-81
2022/05/03 18:59:19;;;;;;;1.67;1.05;;;;;;;20.23;34.81;100021.24;1982876;97;25868;-82
2022/05/03 19:03:11;;;;;;;1.60;1.50;;;;;;;20.25;34.90;100031.36;2033114;95;25855;-81
2022/05/03 19:11:10;;;;;;;1.50;1.17;;;;;;;20.26;35.05;100034.41;2024801;95;25795;-80
2022/05/03 19:18:29;;;;;;;2.65;1.30;;;;;;;20.23;35.09;100039.31;1806867;108;25974;-83
2022/05/03 19:31:31;;;;;;;;;;;;;;;;;;;;;
2022/05/03 20:13:15;;;;;;;5.67;1.80;;;;;;;19.93;36.00;100076.54;1638283;120;25620;-87
2022/05/03 20:25:27;;;;;;;3.33;1.70;;;;;;;19.78;35.97;100086.11;1695014;115;25988;-78
2022/05/03 20:29:42;;;;;;;3.22;1.80;;;;;;;19.69;36.13;100095.53;1717545;109;25933;-81
2022/05/03 20:34:20;;;;;;;3.15;1.82;;;;;;;19.66;36.30;100096.45;1746586;112;26040;-85
2022/05/03 20:38:12;;;;;;;3.55;1.95;;;;;;;19.65;36.34;100098.68;1759724;112;25535;-78
2022/05/03 20:52:34;;;;;;;;;;;;;;;;;;;;;
2022/05/03 20:56:41;;;;;;;3.42;2.08;;;;;;;19.59;36.88;100110.65;1717103;111;26241;-87
2022/05/03 21:00:51;;;;;;;;;;;;;;;;;;;;;
2022/05/03 21:04:29;;;;;;;2.85;2.08;;;;;;;19.55;36.91;100119.55;1784079;108;26292;-84
2022/05/03 21:08:31;;;;;;;4.03;1.87;;;;;;;19.52;37.04;100128.84;1783200;109;25680;-82
2022/05/03 21:11:50;;;;;;;2.58;1.82;;;;;;;19.49;36.98;100132.41;1758390;111;25985;-86
2022/05/03 21:15:34;;;;;;;6.90;1.85;;;;;;;19.45;36.87;100135.14;1756886;111;25901;-83
2022/05/03 21:19:37;;;;;;;4.37;2.72;;;;;;;19.38;36.78;100140.11;1757493;110;26045;-79
2022/05/03 21:23:42;;;;;;;;;;;;;;;;;;;;;
2022/05/03 21:31:50;;;;;;;8.50;2.20;;;;;;;19.26;36.70;100163.17;1782412;109;25746;-79
2022/05/03 21:35:26;;;;;;;5.70;2.20;;;;;;;19.24;36.79;100167.62;1809610;109;26116;-81
2022/05/03 21:43:01;;;;;;;3.60;2.33;;;;;;;19.15;36.79;100178.33;1701748;114;26207;-80
2022/05/03 21:50:26;;;;;;;;;;;;;;;;;;;;;
2022/05/03 21:55:17;;;;;;;;;;;;;;;;;;;;;
2022/05/03 21:58:56;;;;;;;;;;;;;;;;;;;;;
2022/05/03 22:03:22;;;;;;;3.80;2.30;;;;;;;19.06;36.95;100188.58;1663590;114;26052;-79
2022/05/03 22:13:32;;;;;;;3.00;2.05;;;;;;;19.00;37.08;100186.46;1681749;116;25875;-79
2022/05/03 22:17:22;;;;;;;2.67;2.35;;;;;;;18.95;37.14;100186.53;1662297;116;25913;-80
2022/05/03 22:21:13;;;;;;;;;;;;;;;;;;;;;
2022/05/03 22:25:08;;;;;;;;;;;;;;;;;;;;;
2022/05/03 22:28:42;;;;;;;3.67;2.08;;;;;;;18.91;37.40;100194.54;1667447;116;25907;-79
2022/05/03 22:32:45;;;;;;;2.10;1.80;;;;;;;18.89;37.47;100197.19;1611285;121;26010;-80
2022/05/03 22:36:41;;;;;;;7.50;2.02;;;;;;;18.86;37.51;100202.05;1651022;117;25861;-80
2022/05/03 23:05:24;;;;;;;;;;;;;;;;;;;;;
2022/05/03 23:38:18;;;;;;;;;;;;;;;;;;;;;
2022/05/03 23:44:00;;;;;;;;;;;;;;;;;;;;;
2022/05/03 23:48:57;;;;;;;;;;;;;;;;;;;;;
2022/05/03 23:53:20;;;;;;;;;;;;;;;;;;;;;
2022/05/03 23:56:30;;;;;;;1.95;1.40;;;;;;;18.28;39.29;100213.28;1566090;123;26013;-79
